Canefield Airport

Partly cloudy with gusty winds
28oC (82oF)

Partly cloudy with gusty winds


Winds: Easterly @ 06kts/ 11km/h gusting to 17kts / 31km/h

Humidity: 50%

Barometric Pressure: 1015 mb

Accumulated Rainfall for March: 54.6 mm

Updated: 16:00 local time (20:00 UTC)

Douglas-Charles Airport

Cloudy
25oC (77oF)

Cloudy


Winds: Easterly @ 10kts / 19km/h

Humidity: 81%

Barometric Pressure: 1018 mb

Accumulated Rainfall for March: 121.1 mm

Updated: 20:00 local time (00:00 UTC)

Satellite Imagery

Satellite Imagery
Click image for larger view. (Source: National Hurricane Center).

Aviation Routine Report (METAR)

Douglas-Charles: METAR TDPD 270000Z 10010KT 9999 BKN018 25/22 Q1018=
Canefield: METAR TDCF 262000Z 10006G17KT 9999 SCT022 28/18 Q1015=